Airfield :
LOGIN :

Register | Disclaimer

   EN    FR    IT 

 










Legend :    VFR   Marginal VFR   IFR   Intensive IFR   Very Intensive IFR
Visi :
Ceiling :
>= 8 km
>= 3000ft
5 to 8 km
1000 to 3000 ft
1500m to 5 km
500 to 1000 ft
800 to 1500m
200 to 500 ft
< 800m
< 200 ft
Symbols :   Thunderstorms  Fog  Heavy snow  Heavy precipitations  Wind > 20 kt
SIGMETs :     Misc.  Thunderstorms  Icing  Turbulence  Mountain Waves  Volcanic Ashes






- Airport Elevation : 1411 ft
- IATA code : SZG


LOWS - Salzburg

CURRENT METAR :
  • 050650Z 31005KT 6000 3000S -RADZ FEW003 SCT005 BKN012 14/13 Q1011 TEMPO 4500 -DZ BKN005 BECMG BKN020

EXPIRED METARs :
  • 050620Z 29004KT 3500 -RADZ FEW003 SCT006 BKN009 14/13 Q1011 TEMPO 2500 -DZ BKN005 BECMG 6000 BKN010
  • 050550Z VRB02KT 4500 -RADZ FEW003 BKN007 14/13 Q1011 TEMPO BKN005 BECMG 6000 BKN010
  • 050520Z VRB02KT 6000 -RADZ FEW003 SCT006 BKN009 14/13 Q1011 TEMPO 4500 -RADZ BKN005
  • 050450Z VRB01KT 6000 -RA FEW003 SCT006 BKN011 13/13 Q1011 TEMPO 4500 -RADZ BKN005
  • 050420Z VRB02KT 6000 -RA FEW003 SCT010 BKN024 13/13 Q1012 TEMPO 4500 RA BKN014

TAF TAF LOWS
Valid from the 05 at 06:00 until the 06 at 06:00 UTC


050515Z 0506/0606 VRB02KT 7000 -RA FEW004 SCT010 BKN020 TX18/0515Z TN13/0506Z
PROB40
TEMPO 0506/0508 4500 -RADZ FEW003 BKN005
FM051000 30006KT 9999 SCT020 BKN050
TEMPO 0510/0603 -SHRA
BECMG 0518/0520 15007KT
PROB40
TEMPO 0519/0523 30008KT SHRA FEW020 FEW030CB BKN040



MET'MAP, your aeronautical weather chart ! - Copyright ORBIFLY December 2007 - Disclaimer

ORBIFLY MET'MAP TEAM :

Programming & Development : Alexandra Zaïnal
Concept & original design : Baudouin d'Aumeries
Assistance for programming : Marc-Olivier Méhu
Technical & hardware support : Manuel Goepfert

Contact : metmap@orbifly.com




SOURCES & CREDITS :

   NOAA